createdAt,value
2019-03-11T00:05:34.798Z,3.90
2019-03-11T00:09:39.979Z,3.46
2019-03-11T00:13:45.174Z,3.11
2019-03-11T00:17:50.809Z,2.92
2019-03-11T00:21:56.030Z,2.76
2019-03-11T00:26:02.242Z,2.79
2019-03-11T00:30:07.783Z,2.86
2019-03-11T00:34:32.106Z,2.85
2019-03-11T00:43:15.273Z,2.81
2019-03-11T00:47:21.139Z,2.81
2019-03-11T00:51:26.692Z,2.81
2019-03-11T00:59:48.602Z,2.92
2019-03-11T01:03:53.802Z,2.94
2019-03-11T01:07:58.929Z,2.91
2019-03-11T01:12:04.099Z,2.87
2019-03-11T01:16:09.557Z,3.02
2019-03-11T01:20:14.879Z,2.99
2019-03-11T01:24:20.397Z,3.01
2019-03-11T01:32:42.721Z,3.06
2019-03-11T01:36:48.634Z,3.14
2019-03-11T01:40:54.703Z,3.17
2019-03-11T01:45:00.685Z,3.15
2019-03-11T01:49:05.864Z,3.17
2019-03-11T01:53:30.134Z,3.07
2019-03-11T01:57:35.318Z,3.07
2019-03-11T02:01:40.400Z,3.12
2019-03-11T02:05:45.603Z,3.07
2019-03-11T02:09:50.818Z,3.13
2019-03-11T02:13:56.038Z,3.18
2019-03-11T02:18:01.279Z,3.09
2019-03-11T02:22:17.086Z,3.14
2019-03-11T02:26:41.347Z,3.17
2019-03-11T02:30:47.489Z,3.17
2019-03-11T02:34:52.994Z,3.16
2019-03-11T02:38:58.129Z,3.20
2019-03-11T02:43:03.250Z,3.33
2019-03-11T02:47:08.411Z,3.26
2019-03-11T02:51:13.592Z,3.28
2019-03-11T02:55:18.702Z,3.28
2019-03-11T02:59:23.877Z,3.22
2019-03-11T03:03:48.162Z,3.29
2019-03-11T03:08:12.365Z,3.29
2019-03-11T03:12:17.461Z,3.26
2019-03-11T03:16:42.174Z,3.18
2019-03-11T03:20:47.365Z,3.23
2019-03-11T03:29:28.311Z,3.44
2019-03-11T03:33:33.440Z,3.09
2019-03-11T03:37:38.608Z,2.66
2019-03-11T03:41:44.272Z,2.52
2019-03-11T03:45:49.904Z,2.47
2019-03-11T03:49:55.775Z,2.49
2019-03-11T03:54:03.177Z,2.54
2019-03-11T03:58:08.383Z,2.49
2019-03-11T04:02:13.615Z,2.54
2019-03-11T04:06:18.718Z,2.53
2019-03-11T04:10:23.966Z,2.49
2019-03-11T04:14:29.206Z,2.53
2019-03-11T04:18:54.123Z,2.61
2019-03-11T04:23:38.835Z,2.13
2019-03-11T04:27:54.479Z,2.14
2019-03-11T04:31:59.958Z,2.21
2019-03-11T04:36:05.168Z,2.24
2019-03-11T04:44:53.370Z,2.27
2019-03-11T04:48:58.549Z,2.25
2019-03-11T04:57:41.717Z,2.32
2019-03-11T05:01:47.479Z,2.44
2019-03-11T05:05:53.308Z,2.47
2019-03-11T05:09:58.510Z,2.44
2019-03-11T05:14:03.972Z,2.44
2019-03-11T05:18:09.133Z,2.34
2019-03-11T05:22:33.711Z,1.44
2019-03-11T05:26:38.886Z,1.27
2019-03-11T05:30:44.041Z,0.90
2019-03-11T05:34:49.480Z,0.82
2019-03-11T05:38:54.659Z,0.98
2019-03-11T05:42:59.751Z,0.95
2019-03-11T05:47:04.967Z,1.00
2019-03-11T05:51:10.155Z,1.02
2019-03-11T05:55:55.310Z,1.08
2019-03-11T06:00:00.673Z,1.17
2019-03-11T06:04:05.855Z,1.43
2019-03-11T06:08:22.806Z,1.57
2019-03-11T06:12:27.943Z,1.55
2019-03-11T06:16:33.402Z,1.53
2019-03-11T06:20:57.605Z,1.53
2019-03-11T06:25:21.925Z,1.12
2019-03-11T06:29:38.430Z,0.78
2019-03-11T06:33:43.811Z,0.81
2019-03-11T06:37:49.157Z,0.88
2019-03-11T06:41:54.439Z,0.99
2019-03-11T06:45:59.778Z,1.10
2019-03-11T06:54:23.399Z,1.20
2019-03-11T06:58:30.301Z,1.30
2019-03-11T07:02:39.722Z,1.46
2019-03-11T07:06:56.850Z,1.62
2019-03-11T07:11:02.074Z,1.62
2019-03-11T07:15:43.503Z,1.62
2019-03-11T07:19:48.864Z,1.73
2019-03-11T07:23:54.442Z,1.73
2019-03-11T07:27:59.747Z,1.68
2019-03-11T07:32:04.844Z,1.65
2019-03-11T07:36:12.426Z,1.54
2019-03-11T07:40:36.203Z,1.55
2019-03-11T07:44:41.869Z,1.52
2019-03-11T07:48:48.593Z,1.67
2019-03-11T07:52:56.484Z,1.81
2019-03-11T07:57:03.467Z,1.89
2019-03-11T08:01:11.640Z,1.77
2019-03-11T08:05:17.991Z,1.74
2019-03-11T08:09:37.029Z,1.74
2019-03-11T08:14:06.482Z,1.78
2019-03-11T08:18:11.760Z,1.84
2019-03-11T08:22:17.116Z,1.88
2019-03-11T08:26:22.387Z,1.88
2019-03-11T08:30:27.640Z,1.96
2019-03-11T08:34:47.721Z,2.15
2019-03-11T08:39:21.104Z,2.09
2019-03-11T08:44:05.194Z,2.02
2019-03-11T08:48:52.950Z,2.09
2019-03-11T09:01:33.551Z,2.49
2019-03-11T09:09:56.269Z,2.83
2019-03-11T09:14:14.696Z,2.82
2019-03-11T09:18:22.473Z,2.91
2019-03-11T09:22:29.440Z,2.94
2019-03-11T09:26:40.641Z,3.08
2019-03-11T09:30:46.100Z,2.95
2019-03-11T09:34:51.508Z,2.92
2019-03-11T09:43:48.119Z,2.88
2019-03-11T09:57:25.125Z,2.44
2019-03-11T10:01:30.298Z,2.36
2019-03-11T10:05:35.416Z,2.13
2019-03-11T10:09:40.598Z,1.61
2019-03-11T10:13:46.095Z,1.68
2019-03-11T10:17:51.424Z,2.12
2019-03-11T10:21:59.723Z,2.40
2019-03-11T10:26:06.604Z,2.99
2019-03-11T10:30:25.139Z,3.15
2019-03-11T10:34:30.389Z,3.22
2019-03-11T10:38:35.693Z,3.63
2019-03-11T10:42:40.947Z,3.97
2019-03-11T10:46:46.200Z,3.73
2019-03-11T10:50:51.420Z,3.72
2019-03-11T10:54:56.626Z,4.04
2019-03-11T10:59:01.814Z,4.61
2019-03-11T11:03:06.975Z,4.86
2019-03-11T11:08:20.917Z,4.85
2019-03-11T11:12:23.150Z,5.38
2019-03-11T11:16:28.329Z,5.54
2019-03-11T11:20:35.661Z,6.13
2019-03-11T11:24:40.803Z,6.22
2019-03-11T11:28:46.118Z,6.11
2019-03-11T11:32:51.442Z,5.92
2019-03-11T11:36:57.597Z,6.29
2019-03-11T11:41:07.276Z,6.14
2019-03-11T11:45:14.197Z,6.61
2019-03-11T11:49:19.423Z,6.93
2019-03-11T11:53:25.970Z,6.63
2019-03-11T11:57:36.130Z,6.86
2019-03-11T12:01:44.376Z,6.54
2019-03-11T12:05:49.518Z,6.14
2019-03-11T12:09:54.629Z,6.08
2019-03-11T12:13:59.899Z,6.08
2019-03-11T12:18:05.666Z,5.96
2019-03-11T12:22:10.879Z,6.07
2019-03-11T12:26:16.151Z,6.60
2019-03-11T12:30:23.034Z,6.27
2019-03-11T12:34:30.667Z,6.05
2019-03-11T12:38:36.866Z,6.91
2019-03-11T12:42:42.161Z,7.01
2019-03-11T12:46:47.933Z,7.36
2019-03-11T12:50:53.129Z,7.29
2019-03-11T12:54:58.584Z,7.33
2019-03-11T12:59:03.693Z,8.15
2019-03-11T13:03:08.907Z,7.49
2019-03-11T13:07:14.151Z,8.21
2019-03-11T13:11:19.322Z,8.30
2019-03-11T13:15:24.636Z,7.81
2019-03-11T13:19:29.748Z,7.81
2019-03-11T13:23:35.192Z,7.72
2019-03-11T13:27:40.423Z,7.87
2019-03-11T13:31:45.598Z,8.27
2019-03-11T13:35:50.738Z,8.59
2019-03-11T13:39:55.939Z,9.30
2019-03-11T13:44:04.639Z,8.23
2019-03-11T13:48:09.704Z,7.67
2019-03-11T13:52:14.885Z,7.56
2019-03-11T13:56:20.284Z,7.12
2019-03-11T14:00:28.100Z,7.29
2019-03-11T14:04:33.496Z,7.61
2019-03-11T14:08:38.970Z,6.99
2019-03-11T14:12:44.167Z,7.09
2019-03-11T14:16:49.328Z,7.16
2019-03-11T14:20:54.471Z,7.01
2019-03-11T14:25:00.025Z,7.13
2019-03-11T14:29:05.640Z,6.91
2019-03-11T14:33:10.769Z,7.07
2019-03-11T14:37:16.966Z,7.17
2019-03-11T14:41:22.035Z,7.06
2019-03-11T14:45:27.322Z,7.06
2019-03-11T14:49:32.491Z,6.95
2019-03-11T14:53:37.609Z,6.62
2019-03-11T14:57:43.283Z,6.91
2019-03-11T15:01:49.508Z,6.73
2019-03-11T15:05:57.356Z,8.60
2019-03-11T15:10:02.511Z,8.60
2019-03-11T15:14:07.875Z,8.48
2019-03-11T15:18:13.031Z,8.06
2019-03-11T15:22:22.381Z,7.52
2019-03-11T15:26:27.720Z,6.92
2019-03-11T15:30:32.995Z,7.25
2019-03-11T15:34:38.167Z,6.91
2019-03-11T15:38:43.359Z,7.02
2019-03-11T15:42:48.752Z,7.10
2019-03-11T15:46:56.392Z,8.10
2019-03-11T15:51:00.839Z,9.26
2019-03-11T15:55:06.668Z,7.99
2019-03-11T15:59:11.832Z,8.34
2019-03-11T16:03:17.033Z,8.50
2019-03-11T16:07:22.126Z,8.99
2019-03-11T16:11:27.245Z,7.79
2019-03-11T16:15:32.484Z,7.79
2019-03-11T16:19:37.683Z,8.67
2019-03-11T16:23:42.886Z,8.27
2019-03-11T16:27:48.030Z,8.78
2019-03-11T16:31:53.244Z,8.17
2019-03-11T16:35:58.829Z,8.59
2019-03-11T16:40:04.202Z,8.59
2019-03-11T16:44:09.450Z,7.87
2019-03-11T16:48:14.569Z,8.19
2019-03-11T16:52:20.371Z,7.86
2019-03-11T16:56:27.347Z,7.86
2019-03-11T17:00:36.672Z,8.05
2019-03-11T17:04:42.463Z,7.66
2019-03-11T17:08:47.585Z,6.88
2019-03-11T17:12:52.769Z,7.01
2019-03-11T17:16:59.720Z,6.40
2019-03-11T17:21:04.891Z,6.35
2019-03-11T17:25:10.875Z,6.25
2019-03-11T17:29:16.075Z,6.18
2019-03-11T17:33:22.908Z,6.19
2019-03-11T17:37:29.056Z,6.09
2019-03-11T17:41:34.240Z,6.06
2019-03-11T17:45:39.357Z,6.03
2019-03-11T17:49:44.509Z,6.04
2019-03-11T17:53:49.668Z,6.06
2019-03-11T17:57:54.776Z,6.03
2019-03-11T18:01:59.959Z,5.98
2019-03-11T18:06:11.553Z,5.94
2019-03-11T18:10:12.105Z,5.86
2019-03-11T18:14:19.814Z,5.64
2019-03-11T18:18:33.025Z,5.58
2019-03-11T18:22:48.135Z,5.79
2019-03-11T18:27:01.097Z,5.60
2019-03-11T18:31:06.345Z,5.55
2019-03-11T18:35:11.506Z,5.53
2019-03-11T18:39:19.266Z,5.36
2019-03-11T18:43:24.714Z,5.25
2019-03-11T18:47:37.342Z,5.24
2019-03-11T18:51:44.160Z,5.17
2019-03-11T18:55:49.370Z,5.26
2019-03-11T18:59:54.856Z,5.07
2019-03-11T19:04:00.476Z,5.08
2019-03-11T19:08:05.593Z,5.02
2019-03-11T19:12:11.093Z,4.94
2019-03-11T19:16:16.330Z,4.88
2019-03-11T19:20:21.547Z,4.86
2019-03-11T19:24:26.720Z,4.84
2019-03-11T19:28:31.826Z,4.82
2019-03-11T19:32:37.016Z,4.81
2019-03-11T19:36:42.184Z,4.75
2019-03-11T19:40:48.420Z,4.72
2019-03-11T19:44:54.650Z,4.62
2019-03-11T19:49:00.314Z,4.61
2019-03-11T19:53:05.486Z,4.57
2019-03-11T19:57:10.715Z,4.50
2019-03-11T20:01:15.862Z,4.43
2019-03-11T20:05:22.870Z,4.40
2019-03-11T20:09:28.083Z,4.32
2019-03-11T20:13:33.368Z,4.30
2019-03-11T20:17:38.888Z,4.33
2019-03-11T20:21:44.136Z,4.27
2019-03-11T20:25:49.264Z,4.15
2019-03-11T20:29:54.401Z,4.09
2019-03-11T20:33:59.545Z,3.94
2019-03-11T20:38:04.830Z,3.92
2019-03-11T20:42:10.010Z,3.93
2019-03-11T20:46:15.161Z,3.83
2019-03-11T20:50:20.280Z,3.73
2019-03-11T20:54:25.599Z,3.74
2019-03-11T20:58:30.939Z,3.83
2019-03-11T21:02:36.155Z,3.74
2019-03-11T21:06:41.300Z,3.66
2019-03-11T21:10:46.486Z,3.56
2019-03-11T21:14:51.717Z,3.46
2019-03-11T21:18:56.923Z,3.45
2019-03-11T21:23:02.497Z,3.21
2019-03-11T21:27:07.715Z,3.30
2019-03-11T21:31:12.826Z,3.26
2019-03-11T21:35:19.190Z,3.16
2019-03-11T21:39:24.546Z,3.09
2019-03-11T21:43:32.123Z,2.95
2019-03-11T21:47:38.325Z,2.98
2019-03-11T21:51:46.609Z,2.97
2019-03-11T21:55:56.827Z,3.01
2019-03-11T22:00:02.986Z,2.99
2019-03-11T22:04:09.522Z,2.91
2019-03-11T22:08:17.688Z,2.89
2019-03-11T22:12:24.666Z,2.87
2019-03-11T22:16:29.774Z,2.86
2019-03-11T22:20:34.882Z,2.84
2019-03-11T22:24:40.359Z,2.88
2019-03-11T22:28:45.530Z,2.82
2019-03-11T22:32:50.757Z,2.77
2019-03-11T22:36:56.222Z,2.79
2019-03-11T22:41:01.370Z,2.84
2019-03-11T22:45:07.593Z,2.78
2019-03-11T22:49:12.783Z,2.83
2019-03-11T22:53:17.961Z,2.82
2019-03-11T22:57:23.231Z,2.81
2019-03-11T23:01:28.416Z,2.74
2019-03-11T23:05:35.540Z,2.69
2019-03-11T23:09:41.673Z,2.63
2019-03-11T23:13:46.836Z,2.54
2019-03-11T23:17:52.065Z,2.46
2019-03-11T23:21:57.212Z,2.47
2019-03-11T23:26:02.346Z,2.38
2019-03-11T23:30:07.706Z,2.48
2019-03-11T23:34:12.870Z,2.39
2019-03-11T23:38:18.027Z,2.35
2019-03-11T23:42:23.130Z,2.38
2019-03-11T23:46:28.348Z,2.39
2019-03-11T23:50:33.923Z,2.33
2019-03-11T23:54:39.073Z,2.42
2019-03-11T23:58:45.218Z,2.54
